Terminal Aerodrome Forecast
Issued by NWS Shreveport, LA

Home | Current Version | Previous Version | Text Only | Print | Product List | Glossary On
Versions: 1 2 3 4 5 6 7 8 9 10 11 12
000
FTUS44 KSHV 261722
TAFGGG
TAF
KGGG 261722Z 2618/2718 32010KT P6SM SCT030
      TEMPO 2618/2620 BKN025
     FM270000 35004KT P6SM SCT120 BKN250
     FM271500 33008KT P6SM SKC=

USA.gov is the U.S. government's official web portal to all federal, state and local government web resources and services.